Time;durP1;ratioP1;P1;durP2;ratioP2;P2;SDS_P1;SDS_P2;PMS_P1;PMS_P2;Temp;Humidity;BMP_temperature;BMP_pressure;BME280_temperature;BME280_humidity;BME280_pressure;Samples;Min_cycle;Max_cycle;Signal;HPM_P1;HPM_P2
2023/08/24 00:01:40;;;;;;;9.30;6.70;;;;;;;18.77;67.13;100638.95;107785;1257;72708;-67
2023/08/24 00:04:08;;;;;;;10.60;6.70;;;;;;;18.80;67.21;100638.96;107894;1257;72521;-66
2023/08/24 00:06:36;;;;;;;12.10;7.40;;;;;;;18.84;67.11;100640.55;107906;1255;61965;-66
2023/08/24 00:09:05;;;;;;;10.70;6.60;;;;;;;18.87;67.09;100634.82;107896;1256;61106;-69
2023/08/24 00:11:32;;;;;;;12.90;7.50;;;;;;;18.89;66.84;100637.38;107930;1256;74657;-67
2023/08/24 00:13:59;;;;;;;11.10;7.20;;;;;;;18.89;66.69;100642.64;107919;1257;72662;-69
2023/08/24 00:16:26;;;;;;;10.60;7.10;;;;;;;18.87;66.53;100643.19;107968;1256;72392;-69
2023/08/24 00:18:53;;;;;;;11.20;7.00;;;;;;;18.89;66.65;100642.96;107817;1256;61030;-69
2023/08/24 00:21:22;;;;;;;10.80;7.00;;;;;;;18.90;66.36;100642.61;107746;1257;61162;-67
2023/08/24 00:23:50;;;;;;;9.80;7.20;;;;;;;18.90;66.01;100639.36;108081;1256;73405;-68
2023/08/24 00:26:17;;;;;;;11.10;7.50;;;;;;;18.90;65.65;100638.30;107931;1257;72537;-69
2023/08/24 00:28:45;;;;;;;10.00;7.30;;;;;;;18.91;65.30;100639.73;107910;1256;72559;-68
2023/08/24 00:31:15;;;;;;;11.40;7.20;;;;;;;18.91;65.02;100641.67;107740;1255;61931;-68
2023/08/24 00:33:42;;;;;;;12.30;7.30;;;;;;;18.89;64.87;100640.94;107737;1256;61237;-67
2023/08/24 00:36:09;;;;;;;11.80;7.50;;;;;;;18.87;64.85;100644.50;107970;1257;74572;-68
2023/08/24 00:38:36;;;;;;;11.50;7.20;;;;;;;18.86;64.68;100643.83;107896;1257;72722;-67
2023/08/24 00:41:03;;;;;;;9.70;6.90;;;;;;;18.86;64.59;100637.56;107800;1257;72474;-68
2023/08/24 00:43:30;;;;;;;9.80;6.90;;;;;;;18.85;64.33;100636.73;107562;1256;61103;-69
2023/08/24 00:46:00;;;;;;;10.80;6.70;;;;;;;18.86;64.21;100633.92;107874;1255;61129;-68
2023/08/24 00:48:28;;;;;;;11.10;7.10;;;;;;;18.87;64.09;100635.96;107881;1257;75837;-68
2023/08/24 00:50:57;;;;;;;9.50;6.30;;;;;;;18.88;64.06;100637.40;107787;1254;71367;-68
2023/08/24 00:53:24;;;;;;;10.40;7.20;;;;;;;18.88;63.83;100634.70;107926;1256;71243;-68
2023/08/24 00:55:51;;;;;;;11.50;7.30;;;;;;;18.87;63.81;100631.03;107849;1256;61997;-69
2023/08/24 00:58:19;;;;;;;10.10;7.10;;;;;;;18.87;63.69;100632.05;107666;1258;61052;-68
2023/08/24 01:00:48;;;;;;;10.10;6.80;;;;;;;18.88;63.64;100630.56;107911;1257;74704;-68
2023/08/24 01:03:15;;;;;;;8.80;6.50;;;;;;;18.89;63.69;100631.14;107807;1256;72891;-68
2023/08/24 01:05:44;;;;;;;10.00;6.60;;;;;;;18.88;63.69;100630.56;107984;1255;72424;-68
2023/08/24 01:08:12;;;;;;;9.70;6.80;;;;;;;18.88;63.82;100628.61;107971;1255;61877;-68
2023/08/24 01:10:45;;;;;;;10.20;6.80;;;;;;;18.87;63.98;100628.27;108036;1256;61202;-69
2023/08/24 01:13:13;;;;;;;10.70;7.90;;;;;;;18.86;64.15;100630.84;107822;1256;73945;-69
2023/08/24 01:16:00;;;;;;;11.90;7.00;;;;;;;18.83;64.44;100628.21;107637;1257;72803;-67
2023/08/24 01:18:27;;;;;;;10.70;7.00;;;;;;;18.81;64.83;100630.97;107688;1262;73147;-67
2023/08/24 01:20:54;;;;;;;9.90;6.70;;;;;;;18.81;64.87;100630.05;107908;1256;61970;-67
2023/08/24 01:23:50;;;;;;;11.90;7.30;;;;;;;18.81;64.86;100632.65;107826;1257;61123;-68
2023/08/24 01:26:18;;;;;;;10.40;6.70;;;;;;;18.79;64.94;100634.23;107847;1256;74441;-68
2023/08/24 01:28:45;;;;;;;11.40;6.90;;;;;;;18.78;64.92;100634.80;107974;1256;72725;-68
2023/08/24 01:31:15;;;;;;;11.80;6.70;;;;;;;18.76;65.05;100633.21;108023;1257;72527;-68
2023/08/24 01:33:43;;;;;;;9.00;6.20;;;;;;;18.76;65.23;100635.05;107940;1255;61171;-68
2023/08/24 01:36:10;;;;;;;11.70;6.80;;;;;;;18.76;65.44;100635.92;107702;1256;60948;-69
2023/08/24 01:38:37;;;;;;;10.40;6.80;;;;;;;18.77;65.56;100635.31;107689;1255;73391;-68
2023/08/24 01:41:19;;;;;;;10.80;6.60;;;;;;;18.77;65.69;100638.43;107754;1256;71530;-68
2023/08/24 01:43:52;;;;;;;11.00;7.00;;;;;;;18.76;65.90;100637.38;107930;1256;72600;-69
2023/08/24 01:46:21;;;;;;;9.00;6.50;;;;;;;18.75;65.90;100643.79;107994;1257;61238;-69
2023/08/24 01:48:48;;;;;;;9.00;6.10;;;;;;;18.71;65.88;100641.87;107989;1256;60996;-68
2023/08/24 01:51:15;;;;;;;10.40;6.40;;;;;;;18.64;65.70;100641.34;108001;1255;74727;-68
2023/08/24 01:53:43;;;;;;;10.70;6.80;;;;;;;18.58;65.61;100643.98;107542;1256;72730;-68
2023/08/24 01:56:12;;;;;;;9.30;6.50;;;;;;;18.51;65.68;100637.00;108163;1256;72967;-67
2023/08/24 01:58:39;;;;;;;9.20;6.00;;;;;;;18.44;65.77;100639.49;107826;1259;60639;-68
2023/08/24 02:01:05;;;;;;;10.20;6.20;;;;;;;18.33;65.90;100641.48;107731;1256;61081;-68
2023/08/24 02:03:33;;;;;;;8.10;6.20;;;;;;;18.26;66.11;100643.71;107594;1257;74496;-67
2023/08/24 02:06:00;;;;;;;10.90;6.70;;;;;;;18.21;66.29;100647.62;107809;1256;72644;-67
2023/08/24 02:08:29;;;;;;;9.70;6.40;;;;;;;18.16;66.61;100654.09;107975;1255;72847;-68
2023/08/24 02:10:56;;;;;;;11.60;7.00;;;;;;;18.14;66.79;100652.80;107915;1255;62998;-68
2023/08/24 02:13:24;;;;;;;8.50;6.00;;;;;;;18.10;66.97;100657.31;107960;1256;61142;-68
2023/08/24 02:16:01;;;;;;;8.30;6.50;;;;;;;17.99;67.19;100654.20;107934;1257;73497;-68
2023/08/24 02:18:28;;;;;;;8.90;6.40;;;;;;;17.88;67.50;100658.34;107640;1256;72771;-68
2023/08/24 02:20:55;;;;;;;7.80;6.80;;;;;;;17.83;67.64;100659.96;107846;1256;71501;-68
2023/08/24 02:23:21;;;;;;;7.60;6.20;;;;;;;17.79;67.90;100657.28;107965;1256;61938;-68
2023/08/24 02:25:48;;;;;;;9.80;6.60;;;;;;;17.77;68.06;100652.73;108011;1256;61118;-68
2023/08/24 02:28:16;;;;;;;9.90;6.70;;;;;;;17.75;68.05;100653.13;107966;1254;74477;-69
2023/08/24 02:30:43;;;;;;;8.30;6.10;;;;;;;17.70;68.16;100654.63;108060;1256;72731;-68
2023/08/24 02:33:10;;;;;;;9.80;6.50;;;;;;;17.67;68.28;100653.67;107885;1255;72951;-68
2023/08/24 02:35:37;;;;;;;9.00;6.20;;;;;;;17.65;68.46;100656.42;107920;1256;61059;-70
2023/08/24 02:38:05;;;;;;;8.80;6.00;;;;;;;17.64;68.50;100653.16;107861;1256;59696;-68
2023/08/24 02:40:33;;;;;;;8.60;5.70;;;;;;;17.61;68.39;100652.88;107887;1256;75629;-67
2023/08/24 02:43:00;;;;;;;8.70;5.80;;;;;;;17.56;68.24;100655.23;107762;1256;72690;-66
2023/08/24 02:45:27;;;;;;;9.10;6.30;;;;;;;17.51;68.18;100653.46;107636;1256;72998;-68
2023/08/24 02:47:54;;;;;;;8.80;6.10;;;;;;;17.44;67.98;100655.11;107952;1256;61912;-67
2023/08/24 02:50:21;;;;;;;8.20;5.80;;;;;;;17.38;67.83;100664.72;107981;1256;61117;-67
2023/08/24 02:52:48;;;;;;;10.20;6.10;;;;;;;17.32;67.75;100664.25;107856;1255;74535;-68
2023/08/24 02:55:15;;;;;;;8.20;5.80;;;;;;;17.28;67.76;100664.28;108003;1256;72843;-68
2023/08/24 02:57:42;;;;;;;8.70;6.10;;;;;;;17.23;67.74;100662.70;108082;1255;71415;-66
2023/08/24 03:00:13;;;;;;;9.80;6.20;;;;;;;17.17;67.71;100660.88;107670;1256;64540;-68
2023/08/24 03:02:40;;;;;;;7.60;5.70;;;;;;;17.12;67.65;100660.04;107906;1256;61145;-68
2023/08/24 03:05:08;;;;;;;10.70;6.20;;;;;;;17.07;67.61;100661.10;107833;1259;73227;-68
2023/08/24 03:07:37;;;;;;;9.20;6.50;;;;;;;17.02;67.63;100663.19;107997;1256;73137;-67
2023/08/24 03:10:05;;;;;;;9.70;6.60;;;;;;;16.97;67.69;100655.98;107701;1260;70672;-68
2023/08/24 03:12:32;;;;;;;9.80;6.90;;;;;;;16.90;67.73;100657.03;107949;1255;61208;-67
2023/08/24 03:14:59;;;;;;;10.10;6.60;;;;;;;16.85;67.87;100654.63;107862;1256;61179;-67
2023/08/24 03:17:26;;;;;;;8.10;6.30;;;;;;;16.85;67.91;100659.06;107747;1256;76614;-68
2023/08/24 03:19:54;;;;;;;8.60;5.80;;;;;;;16.83;67.93;100662.20;108023;1256;72830;-68
2023/08/24 03:22:21;;;;;;;9.20;5.90;;;;;;;16.79;67.98;100665.73;107804;1255;71190;-68
2023/08/24 03:24:48;;;;;;;8.00;5.90;;;;;;;16.70;68.05;100667.38;107955;1256;61701;-68
2023/08/24 03:27:15;;;;;;;7.30;5.50;;;;;;;16.60;68.36;100666.56;107967;1256;61164;-68
2023/08/24 03:29:42;;;;;;;8.00;5.60;;;;;;;16.53;68.59;100667.15;107873;1255;73626;-67
2023/08/24 03:32:09;;;;;;;7.70;5.70;;;;;;;16.52;68.95;100670.19;107848;1256;72722;-68
2023/08/24 03:34:36;;;;;;;7.60;5.90;;;;;;;16.58;69.23;100671.39;107935;1259;73248;-67
2023/08/24 03:37:03;;;;;;;7.70;6.00;;;;;;;16.65;69.28;100669.55;107806;1255;62025;-69
2023/08/24 03:39:30;;;;;;;7.10;5.40;;;;;;;16.72;69.34;100672.20;108015;1255;61157;-67
2023/08/24 03:41:57;;;;;;;7.60;5.60;;;;;;;16.79;69.44;100671.30;107965;1256;74584;-69
2023/08/24 03:44:25;;;;;;;6.90;5.30;;;;;;;16.88;69.40;100666.08;108059;1256;71936;-68
2023/08/24 03:46:52;;;;;;;7.50;5.50;;;;;;;16.95;69.43;100666.91;108031;1255;72049;-67
2023/08/24 03:49:19;;;;;;;8.50;6.20;;;;;;;17.02;69.44;100673.77;107902;1255;62767;-69
2023/08/24 03:51:46;;;;;;;7.00;5.30;;;;;;;17.06;69.61;100677.09;108007;1256;61066;-67
2023/08/24 03:54:13;;;;;;;7.60;5.50;;;;;;;17.11;69.78;100678.45;108011;1255;74015;-67
2023/08/24 03:56:41;;;;;;;9.60;5.90;;;;;;;17.19;69.76;100682.08;108001;1256;72833;-68
2023/08/24 03:59:08;;;;;;;8.80;5.60;;;;;;;17.28;69.93;100681.45;107728;1256;71253;-67
2023/08/24 04:01:35;;;;;;;8.60;5.80;;;;;;;17.33;70.00;100685.28;107760;1257;61819;-69
2023/08/24 04:04:02;;;;;;;7.60;5.50;;;;;;;17.38;70.11;100687.30;107766;1256;61138;-69
2023/08/24 04:06:29;;;;;;;8.70;5.50;;;;;;;17.43;70.35;100690.13;107785;1256;74642;-67
2023/08/24 04:08:57;;;;;;;8.00;5.90;;;;;;;17.50;70.59;100694.78;107974;1256;72657;-67
2023/08/24 04:11:24;;;;;;;10.60;5.80;;;;;;;17.60;70.81;100688.65;107848;1256;73442;-67
2023/08/24 04:13:52;;;;;;;8.20;6.10;;;;;;;17.75;70.98;100688.91;108015;1255;61875;-66
2023/08/24 04:16:19;;;;;;;8.10;5.90;;;;;;;17.88;70.94;100688.02;108029;1255;59373;-67
2023/08/24 04:18:47;;;;;;;9.50;5.50;;;;;;;18.01;70.95;100687.57;107708;1256;74470;-67
2023/08/24 04:21:14;;;;;;;8.60;6.60;;;;;;;18.14;70.96;100685.11;107882;1255;73739;-67
2023/08/24 04:23:44;;;;;;;8.90;6.10;;;;;;;18.27;71.00;100684.35;107919;1255;72824;-69
2023/08/24 04:26:12;;;;;;;9.10;6.30;;;;;;;18.38;70.92;100683.23;107916;1256;61110;-68
2023/08/24 04:28:40;;;;;;;8.80;6.00;;;;;;;18.47;70.88;100680.92;108001;1255;61153;-68
2023/08/24 04:31:07;;;;;;;11.00;6.60;;;;;;;18.54;70.92;100682.64;107886;1256;74755;-68
2023/08/24 04:33:34;;;;;;;10.70;6.80;;;;;;;18.63;70.97;100685.90;107949;1256;71401;-68
2023/08/24 04:36:03;;;;;;;9.80;7.20;;;;;;;18.74;71.01;100688.80;107984;1259;73531;-69
2023/08/24 04:38:30;;;;;;;10.10;6.70;;;;;;;18.84;70.96;100691.42;108057;1256;61935;-69
2023/08/24 04:40:57;;;;;;;8.60;7.60;;;;;;;18.92;71.03;100691.63;107996;1256;59276;-69
2023/08/24 04:43:24;;;;;;;9.10;7.30;;;;;;;19.01;70.95;100691.64;107916;1256;75348;-68
2023/08/24 04:45:53;;;;;;;9.40;6.70;;;;;;;19.09;70.86;100689.14;107946;1257;71197;-68
2023/08/24 04:48:21;;;;;;;8.90;6.90;;;;;;;19.21;70.74;100682.13;108057;1259;72467;-68
2023/08/24 04:50:49;;;;;;;9.30;6.80;;;;;;;19.35;70.51;100682.18;107988;1255;61906;-68
2023/08/24 04:53:17;;;;;;;8.00;6.50;;;;;;;19.50;70.23;100681.43;107884;1256;61639;-67
2023/08/24 04:55:44;;;;;;;9.50;6.40;;;;;;;19.69;70.18;100682.23;107910;1256;75957;-67
2023/08/24 04:58:12;;;;;;;10.60;6.40;;;;;;;19.88;70.07;100679.50;108003;1256;74006;-69
2023/08/24 05:00:38;;;;;;;8.30;6.00;;;;;;;20.06;69.58;100674.16;107974;1256;72466;-68
2023/08/24 05:03:06;;;;;;;8.70;6.20;;;;;;;20.24;69.26;100671.96;107827;1256;61788;-67
2023/08/24 05:05:33;;;;;;;10.20;6.80;;;;;;;20.42;69.04;100672.98;108074;1255;60329;-67
2023/08/24 05:08:00;;;;;;;10.30;6.20;;;;;;;20.58;68.47;100671.88;107987;1256;74702;-67
2023/08/24 05:10:31;;;;;;;9.10;6.00;;;;;;;20.71;68.12;100666.64;107964;1255;72581;-68
2023/08/24 05:12:58;;;;;;;8.70;6.00;;;;;;;20.86;67.45;100670.35;107696;1260;72386;-67
2023/08/24 05:15:25;;;;;;;9.30;6.60;;;;;;;21.01;67.30;100673.77;108026;1256;61998;-68
2023/08/24 05:17:54;;;;;;;8.60;5.70;;;;;;;21.14;66.90;100671.69;107955;1256;61203;-68
2023/08/24 05:20:27;;;;;;;9.90;5.80;;;;;;;21.29;66.39;100667.64;107980;1256;74723;-67
2023/08/24 05:22:57;;;;;;;8.30;6.20;;;;;;;21.46;66.03;100667.17;108005;1256;72756;-69
2023/08/24 05:25:24;;;;;;;8.50;6.10;;;;;;;21.63;65.45;100675.29;108008;1255;72499;-67
2023/08/24 05:27:51;;;;;;;7.30;5.70;;;;;;;21.77;64.88;100672.27;107909;1256;63074;-68
2023/08/24 05:30:19;;;;;;;7.40;5.50;;;;;;;21.90;63.68;100670.52;107982;1257;61183;-68
2023/08/24 05:32:46;;;;;;;8.50;5.70;;;;;;;22.01;62.84;100665.11;107798;1255;74760;-68
2023/08/24 05:35:16;;;;;;;7.60;5.70;;;;;;;22.13;62.21;100665.80;108048;1255;71364;-70
2023/08/24 05:37:42;;;;;;;8.50;6.30;;;;;;;22.25;62.15;100666.10;107982;1255;73568;-68
2023/08/24 05:40:10;;;;;;;6.70;5.50;;;;;;;22.34;61.65;100665.02;107914;1255;61955;-68
2023/08/24 05:42:37;;;;;;;7.20;5.30;;;;;;;22.41;61.07;100660.84;107958;1255;61253;-69
2023/08/24 05:45:05;;;;;;;7.90;5.10;;;;;;;22.47;59.26;100661.39;107927;1256;75013;-68
2023/08/24 05:47:32;;;;;;;8.60;5.10;;;;;;;22.56;58.48;100667.74;107933;1255;72533;-69
2023/08/24 05:50:00;;;;;;;6.60;5.20;;;;;;;22.65;57.69;100664.72;107902;1256;72590;-69
2023/08/24 05:52:27;;;;;;;6.90;4.80;;;;;;;22.73;57.28;100664.61;107813;1255;61161;-69
2023/08/24 05:54:54;;;;;;;6.00;3.70;;;;;;;22.81;56.21;100655.00;107851;1255;59269;-70
2023/08/24 05:57:21;;;;;;;7.50;4.30;;;;;;;22.85;54.27;100655.69;107815;1256;72786;-70
2023/08/24 05:59:48;;;;;;;5.30;3.50;;;;;;;22.93;53.74;100656.34;107915;1257;72750;-69
2023/08/24 06:02:16;;;;;;;6.80;4.30;;;;;;;23.03;52.80;100659.36;107729;1255;73238;-72
2023/08/24 06:04:43;;;;;;;7.70;4.30;;;;;;;23.11;52.97;100657.05;107633;1255;61229;-69
2023/08/24 06:07:12;;;;;;;7.10;4.50;;;;;;;23.20;53.03;100658.23;107617;1255;61875;-70
2023/08/24 06:09:39;;;;;;;6.00;3.90;;;;;;;23.28;52.88;100657.07;107766;1256;74485;-70
2023/08/24 06:12:07;;;;;;;5.80;3.60;;;;;;;23.33;52.09;100655.36;107730;1255;72715;-70
2023/08/24 06:14:33;;;;;;;6.60;3.60;;;;;;;23.38;51.41;100654.05;107860;1256;72908;-69
2023/08/24 06:17:00;;;;;;;5.90;3.60;;;;;;;23.44;51.20;100651.02;107723;1256;61278;-71
2023/08/24 06:19:27;;;;;;;7.90;3.70;;;;;;;23.53;50.94;100649.51;107881;1256;61247;-70
2023/08/24 06:21:55;;;;;;;6.60;3.80;;;;;;;23.65;50.89;100646.05;107897;1256;73623;-70
2023/08/24 06:24:22;;;;;;;6.80;3.90;;;;;;;23.73;50.33;100645.03;107923;1256;71480;-70
2023/08/24 06:26:49;;;;;;;6.60;3.40;;;;;;;23.84;49.96;100648.13;107698;1255;72969;-70
2023/08/24 06:29:16;;;;;;;6.40;3.40;;;;;;;23.91;49.51;100644.92;107829;1255;61099;-71
2023/08/24 06:31:42;;;;;;;7.50;3.10;;;;;;;23.96;49.02;100646.25;107853;1256;61074;-70
2023/08/24 06:34:09;;;;;;;4.50;2.80;;;;;;;24.05;48.49;100645.02;107848;1259;74679;-70
2023/08/24 06:36:36;;;;;;;5.10;3.10;;;;;;;24.15;48.25;100645.70;107892;1256;71290;-69
2023/08/24 06:39:04;;;;;;;5.40;3.20;;;;;;;24.20;47.72;100649.34;107907;1259;72705;-70
2023/08/24 06:41:36;;;;;;;6.40;3.30;;;;;;;24.24;47.45;100655.38;107874;1256;61125;-69
2023/08/24 06:44:07;;;;;;;8.20;3.70;;;;;;;24.29;47.02;100651.09;107757;1254;61099;-69
2023/08/24 06:46:34;;;;;;;7.00;3.40;;;;;;;24.33;46.81;100651.58;107792;1256;74674;-69
2023/08/24 06:49:01;;;;;;;6.40;3.40;;;;;;;24.41;46.97;100655.16;108149;1255;73060;-70
2023/08/24 06:51:28;;;;;;;5.70;3.30;;;;;;;24.51;46.73;100657.23;107776;1259;71605;-70
2023/08/24 06:53:55;;;;;;;6.60;3.40;;;;;;;24.59;46.30;100659.66;107703;1255;61109;-70
2023/08/24 06:56:22;;;;;;;4.80;3.10;;;;;;;24.67;46.00;100658.05;107775;1256;61888;-70
2023/08/24 06:58:49;;;;;;;5.80;2.90;;;;;;;24.71;45.46;100659.50;108390;1255;74730;-70
2023/08/24 07:01:16;;;;;;;5.40;3.00;;;;;;;24.79;45.58;100664.00;107756;1256;72994;-71
2023/08/24 07:03:43;;;;;;;6.30;3.00;;;;;;;24.84;44.87;100659.52;107680;1255;72506;-69
2023/08/24 07:06:13;;;;;;;5.70;2.60;;;;;;;24.91;44.77;100661.02;107812;1256;61076;-71
2023/08/24 07:08:40;;;;;;;6.30;3.00;;;;;;;25.00;44.23;100662.51;107909;1255;61231;-70
2023/08/24 07:11:06;;;;;;;6.30;2.80;;;;;;;25.09;44.04;100658.77;107780;1256;74626;-70
2023/08/24 07:13:34;;;;;;;6.10;2.80;;;;;;;25.19;43.68;100660.98;107667;1259;71442;-70
2023/08/24 07:16:02;;;;;;;5.40;2.80;;;;;;;25.26;43.22;100661.48;107717;1255;72329;-70
2023/08/24 07:18:30;;;;;;;6.90;2.50;;;;;;;25.28;42.69;100663.55;108301;1256;61226;-70
2023/08/24 07:20:58;;;;;;;3.90;2.30;;;;;;;25.33;42.57;100664.12;107986;1256;61205;-70
2023/08/24 07:23:25;;;;;;;3.50;2.20;;;;;;;25.41;42.43;100663.78;107852;1256;74496;-70
2023/08/24 07:25:53;;;;;;;7.60;2.30;;;;;;;25.46;41.22;100662.71;107945;1256;72474;-69
2023/08/24 07:28:20;;;;;;;3.30;2.20;;;;;;;25.44;41.13;100662.52;107830;1256;72697;-69
2023/08/24 07:30:47;;;;;;;5.20;1.80;;;;;;;25.45;40.90;100664.02;107800;1254;61306;-71
2023/08/24 07:33:14;;;;;;;3.80;1.90;;;;;;;25.46;40.66;100664.42;107959;1255;61119;-71
2023/08/24 07:35:41;;;;;;;4.70;2.00;;;;;;;25.53;39.79;100665.15;107937;1259;74685;-70
2023/08/24 07:38:08;;;;;;;5.80;2.10;;;;;;;25.57;39.70;100669.66;107888;1256;72637;-70
2023/08/24 07:40:34;;;;;;;3.70;1.70;;;;;;;25.58;38.25;100670.27;107846;1255;72833;-70
2023/08/24 07:43:02;;;;;;;3.50;1.80;;;;;;;25.58;37.80;100665.94;108003;1256;61231;-69
2023/08/24 07:45:29;;;;;;;6.20;2.10;;;;;;;25.60;38.01;100668.59;107823;1256;61188;-71
2023/08/24 07:47:56;;;;;;;3.40;1.40;;;;;;;25.65;37.81;100665.96;107824;1259;73411;-69
2023/08/24 07:50:23;;;;;;;3.10;1.60;;;;;;;25.77;37.59;100664.52;107864;1256;72771;-68
2023/08/24 07:52:50;;;;;;;2.90;1.40;;;;;;;25.91;37.52;100666.58;107707;1255;72743;-69
2023/08/24 07:55:20;;;;;;;3.70;1.70;;;;;;;26.04;36.82;100669.41;107797;1255;61138;-68
2023/08/24 07:57:48;;;;;;;4.00;1.40;;;;;;;26.13;37.11;100672.66;107893;1255;61107;-69
2023/08/24 08:00:19;;;;;;;2.40;1.10;;;;;;;26.25;36.48;100671.25;107778;1255;75082;-70
2023/08/24 08:02:45;;;;;;;3.00;1.30;;;;;;;26.35;35.61;100667.38;107670;1256;73733;-69
2023/08/24 08:05:13;;;;;;;5.00;1.30;;;;;;;26.39;34.91;100668.88;107801;1255;73137;-71
2023/08/24 08:07:40;;;;;;;2.60;1.40;;;;;;;26.35;34.62;100664.73;107786;1259;61650;-71
2023/08/24 08:10:07;;;;;;;3.20;1.20;;;;;;;26.41;34.99;100662.50;107795;1254;61328;-70
2023/08/24 08:12:34;;;;;;;3.60;1.40;;;;;;;26.50;34.43;100660.29;107924;1257;74513;-70
2023/08/24 08:15:02;;;;;;;2.60;1.30;;;;;;;26.54;34.33;100656.21;107737;1256;72836;-69
2023/08/24 08:17:30;;;;;;;4.80;1.80;;;;;;;26.61;34.42;100655.63;107894;1256;71345;-69
2023/08/24 08:19:57;;;;;;;4.40;1.70;;;;;;;26.73;34.41;100649.27;107896;1256;61132;-71
2023/08/24 08:22:25;;;;;;;4.50;1.80;;;;;;;26.85;34.53;100646.34;107736;1255;61154;-71
2023/08/24 08:24:54;;;;;;;4.10;1.60;;;;;;;26.97;34.37;100646.77;107603;1257;73612;-70
2023/08/24 08:27:21;;;;;;;5.40;1.90;;;;;;;27.04;33.32;100644.69;107701;1256;72740;-70
2023/08/24 08:29:49;;;;;;;5.90;2.60;;;;;;;27.04;33.39;100647.20;107704;1256;71484;-71
2023/08/24 08:32:16;;;;;;;4.20;2.00;;;;;;;27.09;33.89;100652.31;107931;1255;61208;-71
2023/08/24 08:34:43;;;;;;;5.20;2.50;;;;;;;27.16;33.48;100650.73;107995;1256;61082;-70
2023/08/24 08:37:10;;;;;;;4.20;2.00;;;;;;;27.23;33.82;100644.88;107876;1256;74434;-70
2023/08/24 08:39:37;;;;;;;4.60;2.20;;;;;;;27.30;33.84;100645.54;107875;1259;74023;-70
2023/08/24 08:42:04;;;;;;;4.70;2.10;;;;;;;27.40;33.90;100645.75;107780;1256;73071;-70
2023/08/24 08:44:31;;;;;;;5.40;2.20;;;;;;;27.48;33.92;100644.23;107881;1255;61154;-71
2023/08/24 08:46:59;;;;;;;5.20;1.90;;;;;;;27.55;33.95;100638.40;107833;1256;61183;-71
2023/08/24 08:49:26;;;;;;;4.90;2.00;;;;;;;27.62;33.84;100638.08;107474;1256;75441;-71
2023/08/24 08:51:55;;;;;;;7.60;2.30;;;;;;;27.72;34.24;100641.14;107886;1256;73077;-70
2023/08/24 08:54:22;;;;;;;4.60;2.20;;;;;;;27.81;34.10;100639.55;107630;1256;72053;-72
2023/08/24 08:56:49;;;;;;;6.20;2.30;;;;;;;27.86;33.87;100637.73;107863;1256;61152;-71
2023/08/24 08:59:16;;;;;;;5.30;2.20;;;;;;;27.86;33.81;100635.85;107890;1259;61124;-69
2023/08/24 09:01:44;;;;;;;8.40;2.60;;;;;;;27.74;33.60;100634.34;107621;1256;74593;-69
2023/08/24 09:04:11;;;;;;;8.10;2.00;;;;;;;27.70;34.28;100631.44;107501;1256;64032;-70
2023/08/24 10:32:54;;;;;;;3.20;1.70;;;;;;;28.04;30.55;100580.85;104724;1292;606034;-78
2023/08/24 10:35:22;;;;;;;3.50;1.80;;;;;;;29.21;28.58;100570.06;107027;1266;150188;-78
2023/08/24 10:37:52;;;;;;;4.70;1.90;;;;;;;29.30;28.05;100572.73;107240;1270;59301;-79
2023/08/24 10:40:47;;;;;;;4.00;1.90;;;;;;;29.29;27.84;100572.71;107301;1271;63387;-78
2023/08/24 10:43:15;;;;;;;6.00;2.20;;;;;;;29.23;27.36;100566.54;107093;1271;63429;-78
2023/08/24 10:45:59;;;;;;;3.50;1.60;;;;;;;29.25;27.95;100566.23;107074;1266;63768;-78
2023/08/24 10:48:57;;;;;;;5.30;2.20;;;;;;;29.44;28.29;100568.94;107137;1271;59299;-78
2023/08/24 10:51:28;;;;;;;4.30;1.80;;;;;;;29.67;28.09;100569.46;107078;1265;59488;-79
2023/08/24 10:53:57;;;;;;;3.10;1.80;;;;;;;29.74;27.52;100568.48;107283;1266;62276;-79
2023/08/24 10:56:39;;;;;;;3.80;1.80;;;;;;;29.61;27.60;100566.52;107095;1266;64008;-79
2023/08/24 10:59:12;;;;;;;3.20;1.90;;;;;;;29.44;27.89;100563.36;107310;1267;62586;-77
2023/08/24 11:01:41;;;;;;;4.40;1.80;;;;;;;29.30;27.56;100559.04;107067;1271;60238;-76
2023/08/24 11:04:11;;;;;;;4.60;1.90;;;;;;;29.19;27.77;100554.50;107209;1266;59253;-79
2023/08/24 11:06:59;;;;;;;3.40;1.90;;;;;;;29.14;27.68;100551.16;107266;1264;62969;-79
2023/08/24 11:09:44;;;;;;;5.60;2.00;;;;;;;29.11;28.14;100554.77;107164;1271;62759;-76
2023/08/24 11:12:12;;;;;;;4.30;2.00;;;;;;;29.15;28.86;100553.61;107051;1267;62778;-77
2023/08/24 11:14:58;;;;;;;4.90;2.40;;;;;;;29.31;28.39;100549.61;107114;1266;62125;-79
2023/08/24 11:17:30;;;;;;;3.30;1.80;;;;;;;29.43;27.42;100549.68;107143;1266;59844;-76
2023/08/24 11:19:57;;;;;;;5.30;1.90;;;;;;;29.49;27.45;100549.95;107395;1266;62980;-78
2023/08/24 11:22:25;;;;;;;4.10;2.20;;;;;;;29.42;27.44;100544.09;107249;1264;65779;-78
2023/08/24 11:24:53;;;;;;;5.10;2.00;;;;;;;29.37;27.33;100540.30;107132;1263;62886;-79
2023/08/24 11:27:21;;;;;;;3.30;1.90;;;;;;;29.38;27.15;100542.73;107119;1263;59371;-80
2023/08/24 11:29:59;;;;;;;3.40;1.70;;;;;;;29.48;27.50;100537.75;107068;1267;59531;-81
2023/08/24 11:32:27;;;;;;;4.10;2.10;;;;;;;29.56;27.85;100537.87;106967;1266;62933;-78
2023/08/24 11:34:55;;;;;;;3.90;2.00;;;;;;;29.60;26.95;100537.98;107033;1266;63997;-75
2023/08/24 11:37:22;;;;;;;3.20;1.70;;;;;;;29.70;26.47;100534.89;106986;1269;65852;-76
2023/08/24 11:39:50;;;;;;;4.20;2.20;;;;;;;29.84;27.06;100532.82;107030;1266;60840;-76
2023/08/24 11:42:18;;;;;;;3.10;1.60;;;;;;;30.04;26.71;100531.52;107146;1266;59686;-80
2023/08/24 11:44:46;;;;;;;4.50;1.90;;;;;;;30.20;26.83;100526.22;106936;1272;64176;-73
2023/08/24 11:47:14;;;;;;;4.40;1.80;;;;;;;30.29;26.66;100518.05;107822;1254;63793;-74
2023/08/24 11:49:42;;;;;;;3.90;1.70;;;;;;;30.17;26.10;100520.45;107833;1255;64013;-73
2023/08/24 11:52:10;;;;;;;3.70;1.70;;;;;;;29.96;26.49;100524.73;107773;1254;59874;-73
2023/08/24 11:54:38;;;;;;;3.90;1.80;;;;;;;29.78;26.94;100522.95;107871;1254;59016;-74
2023/08/24 11:57:08;;;;;;;3.00;1.50;;;;;;;29.60;27.55;100521.30;107964;1254;64329;-74
2023/08/24 11:59:37;;;;;;;4.40;1.80;;;;;;;29.51;27.46;100516.92;107893;1253;63980;-75
2023/08/24 12:02:04;;;;;;;4.30;1.80;;;;;;;29.49;27.44;100515.04;107733;1259;65895;-75
2023/08/24 12:04:42;;;;;;;3.50;2.10;;;;;;;29.39;27.86;100519.07;107810;1254;59650;-74
2023/08/24 12:07:12;;;;;;;4.10;1.90;;;;;;;29.30;27.67;100518.57;107802;1254;61145;-73
2023/08/24 12:09:41;;;;;;;4.10;1.90;;;;;;;29.32;28.02;100516.22;107888;1254;64324;-75
2023/08/24 12:12:13;;;;;;;3.50;1.90;;;;;;;29.41;27.78;100515.39;107883;1259;66175;-74
2023/08/24 12:14:45;;;;;;;3.40;2.10;;;;;;;29.54;27.91;100510.81;108038;1254;64164;-73
2023/08/24 12:17:13;;;;;;;;;;;;;;;29.69;27.04;100518.27;107968;1254;59689;-73
2023/08/24 12:19:46;;;;;;;6.00;1.80;;;;;;;29.73;26.93;100512.55;107980;1254;59109;-74
2023/08/24 12:22:16;;;;;;;2.80;1.60;;;;;;;29.68;26.75;100513.95;107817;1254;64372;-74
2023/08/24 12:24:47;;;;;;;5.80;2.10;;;;;;;29.64;26.97;100512.92;107767;1259;64036;-74
2023/08/24 12:27:19;;;;;;;1.90;1.40;;;;;;;29.66;26.88;100512.30;107874;1259;63746;-74
2023/08/24 12:29:47;;;;;;;3.70;1.50;;;;;;;29.65;26.47;100511.90;108491;1259;59712;-74
2023/08/24 12:32:16;;;;;;;4.20;1.90;;;;;;;29.62;26.59;100507.80;107715;1254;59360;-75
2023/08/24 12:34:44;;;;;;;2.90;1.70;;;;;;;29.65;26.80;100508.44;107826;1254;64455;-74
2023/08/24 12:37:12;;;;;;;3.20;1.60;;;;;;;29.68;27.61;100510.02;107772;1254;66166;-75
2023/08/24 12:39:40;;;;;;;4.80;2.00;;;;;;;29.72;27.34;100507.45;107773;1254;62532;-74
2023/08/24 12:42:07;;;;;;;4.10;1.90;;;;;;;29.70;27.21;100507.76;107843;1257;59177;-74
2023/08/24 12:44:36;;;;;;;3.90;1.90;;;;;;;29.61;27.09;100502.67;107833;1255;59606;-75
2023/08/24 12:47:04;;;;;;;3.30;1.60;;;;;;;29.44;27.06;100496.14;107821;1255;64337;-75
2023/08/24 12:49:32;;;;;;;3.60;2.10;;;;;;;29.29;27.20;100489.08;107785;1254;63851;-74